Time;durP1;ratioP1;P1;durP2;ratioP2;P2;SDS_P1;SDS_P2;PMS_P1;PMS_P2;Temp;Humidity;BMP_temperature;BMP_pressure;BME280_temperature;BME280_humidity;BME280_pressure;Samples;Min_cycle;Max_cycle;Signal;HPM_P1;HPM_P2
2022/11/28 00:01:34;;;;;;;9.73;6.22;;;6.20;99.90;;;;;;6214175;23;20082;-80
2022/11/28 00:04:00;;;;;;;14.35;7.35;;;6.20;99.90;;;;;;6241644;23;20341;-80
2022/11/28 00:06:26;;;;;;;10.88;6.68;;;6.30;99.90;;;;;;6241133;23;20008;-79
2022/11/28 00:08:52;;;;;;;11.85;6.47;;;6.20;99.90;;;;;;6241124;23;20013;-79
2022/11/28 00:11:18;;;;;;;11.57;6.53;;;6.20;99.90;;;;;;6241953;23;20016;-80
2022/11/28 00:13:45;;;;;;;11.35;5.63;;;6.20;99.90;;;;;;6213962;23;20027;-79
2022/11/28 00:16:21;;;;;;;10.57;5.60;;;6.20;99.90;;;;;;6213159;23;20016;-80
2022/11/28 00:18:48;;;;;;;11.43;6.85;;;6.20;99.90;;;;;;6189076;23;20012;-79
2022/11/28 00:21:14;;;;;;;10.18;6.35;;;6.20;99.90;;;;;;6188274;23;20020;-79
2022/11/28 00:23:42;;;;;;;11.23;6.60;;;6.20;99.90;;;;;;6213925;23;20027;-79
2022/11/28 00:26:18;;;;;;;11.15;6.40;;;6.20;99.90;;;;;;6240191;23;20356;-79
2022/11/28 00:28:43;;;;;;;11.90;6.57;;;6.20;99.90;;;;;;6188860;23;20027;-80
2022/11/28 00:31:19;;;;;;;11.50;6.47;;;6.20;99.90;;;;;;6213718;23;20020;-79
2022/11/28 00:33:45;;;;;;;10.30;6.32;;;6.20;99.90;;;;;;6240941;23;20016;-80
2022/11/28 00:36:11;;;;;;;9.35;6.05;;;6.20;99.90;;;;;;6241000;23;20011;-80
2022/11/28 00:38:37;;;;;;;12.60;7.03;;;6.20;99.90;;;;;;6214189;23;20016;-80
2022/11/28 00:41:14;;;;;;;13.52;6.40;;;6.20;99.90;;;;;;6240970;23;20177;-80
2022/11/28 00:43:41;;;;;;;11.40;6.82;;;6.20;99.90;;;;;;6239755;23;20411;-79
2022/11/28 00:46:07;;;;;;;10.75;6.38;;;6.20;99.90;;;;;;6240583;23;20099;-79
2022/11/28 00:48:34;;;;;;;10.27;6.40;;;6.40;99.90;;;;;;6213669;23;20012;-79
2022/11/28 00:51:14;;;;;;;11.43;6.75;;;6.30;99.90;;;;;;6212734;23;20020;-79
2022/11/28 00:53:41;;;;;;;10.70;6.97;;;6.30;99.90;;;;;;6188247;23;20016;-80
2022/11/28 00:56:09;;;;;;;11.50;6.38;;;6.30;99.90;;;;;;6240730;23;20039;-79
2022/11/28 00:58:36;;;;;;;11.40;6.30;;;6.30;99.90;;;;;;6213553;23;20491;-80
2022/11/28 01:01:15;;;;;;;12.18;6.47;;;6.30;99.90;;;;;;6240507;23;20340;-80
2022/11/28 01:03:41;;;;;;;10.88;6.18;;;6.30;99.90;;;;;;6240879;23;20480;-79
2022/11/28 01:06:08;;;;;;;11.35;7.00;;;6.30;99.90;;;;;;6213006;23;20091;-79
2022/11/28 01:08:34;;;;;;;12.68;6.70;;;6.30;99.90;;;;;;6213295;23;20051;-79
2022/11/28 01:11:00;;;;;;;10.70;6.05;;;6.30;99.90;;;;;;6240586;23;20023;-80
2022/11/28 01:13:26;;;;;;;10.43;6.25;;;6.30;99.90;;;;;;6212839;23;20016;-79
2022/11/28 01:15:51;;;;;;;9.88;6.40;;;6.30;99.90;;;;;;6239507;23;20012;-80
2022/11/28 01:18:17;;;;;;;11.57;6.80;;;6.30;99.90;;;;;;6213148;23;20011;-80
2022/11/28 01:20:43;;;;;;;12.20;6.90;;;6.30;99.90;;;;;;6240454;23;20016;-79
2022/11/28 01:23:08;;;;;;;11.50;6.70;;;6.30;99.90;;;;;;6213255;23;20070;-79
2022/11/28 01:25:34;;;;;;;11.55;6.50;;;6.30;99.90;;;;;;6241005;23;20023;-78
2022/11/28 01:28:00;;;;;;;10.90;6.40;;;6.30;99.90;;;;;;6241371;23;20440;-79
2022/11/28 01:30:25;;;;;;;10.43;6.63;;;6.30;99.90;;;;;;6242190;23;20375;-80
2022/11/28 01:32:51;;;;;;;10.65;7.25;;;6.30;99.90;;;;;;6242556;23;20016;-79
2022/11/28 01:35:17;;;;;;;12.25;7.05;;;6.40;99.90;;;;;;6190230;23;20016;-79
2022/11/28 01:37:42;;;;;;;15.98;7.00;;;6.40;99.90;;;;;;6215083;23;20073;-79
2022/11/28 01:40:10;;;;;;;13.23;6.65;;;6.50;99.90;;;;;;6242179;23;20019;-79
2022/11/28 01:42:36;;;;;;;10.68;6.50;;;6.40;99.90;;;;;;6215210;23;20380;-79
2022/11/28 01:45:34;;;;;;;13.13;6.95;;;6.40;99.90;;;;;;6241717;23;20027;-79
2022/11/28 01:48:02;;;;;;;11.93;7.40;;;6.50;99.90;;;;;;6124639;23;20133;-79
2022/11/28 01:50:31;;;;;;;13.80;7.65;;;6.50;99.90;;;;;;6241430;23;20071;-79
2022/11/28 01:53:02;;;;;;;13.20;6.93;;;6.50;99.90;;;;;;6242028;23;20071;-79
2022/11/28 01:55:32;;;;;;;11.48;7.00;;;6.50;99.90;;;;;;6215066;23;20325;-80
2022/11/28 01:57:58;;;;;;;13.85;7.80;;;6.50;99.90;;;;;;6241938;23;20012;-78
2022/11/28 02:00:23;;;;;;;12.57;7.05;;;6.50;99.90;;;;;;6215150;23;20027;-80
2022/11/28 02:02:59;;;;;;;13.95;7.53;;;6.40;99.90;;;;;;6214671;23;20062;-79
2022/11/28 02:05:25;;;;;;;13.27;8.13;;;6.50;99.90;;;;;;6241905;23;20062;-79
2022/11/28 02:07:51;;;;;;;15.70;8.10;;;6.50;99.90;;;;;;6215088;23;20090;-79
2022/11/28 02:10:25;;;;;;;14.57;8.15;;;6.50;99.90;;;;;;6215160;23;20012;-79
2022/11/28 02:13:05;;;;;;;15.23;7.85;;;6.50;99.90;;;;;;6242376;23;20019;-80
2022/11/28 02:15:42;;;;;;;11.57;7.38;;;6.50;99.90;;;;;;6242110;23;20279;-79
2022/11/28 02:18:18;;;;;;;18.27;9.20;;;6.50;99.90;;;;;;6241445;23;20083;-79
2022/11/28 02:21:03;;;;;;;16.83;8.30;;;6.50;99.90;;;;;;6215111;23;20028;-80
2022/11/28 02:23:47;;;;;;;13.90;9.30;;;6.50;99.90;;;;;;6242021;23;20020;-80
2022/11/28 02:26:47;;;;;;;13.90;8.77;;;6.50;99.90;;;;;;6213872;23;20031;-79
2022/11/28 02:29:35;;;;;;;15.77;8.38;;;6.50;99.90;;;;;;6214667;23;20012;-79
2022/11/28 02:32:10;;;;;;;18.33;9.77;;;6.40;99.90;;;;;;6188828;23;20024;-79
2022/11/28 02:34:43;;;;;;;18.27;9.63;;;6.50;99.90;;;;;;6241581;23;20055;-78
2022/11/28 02:37:16;;;;;;;14.20;9.05;;;6.40;99.90;;;;;;6241899;23;20313;-79
2022/11/28 02:40:07;;;;;;;15.93;9.63;;;6.50;99.90;;;;;;6214212;23;20023;-79
2022/11/28 02:42:54;;;;;;;14.50;8.77;;;6.50;99.90;;;;;;6240250;23;20557;-79
2022/11/28 02:45:33;;;;;;;16.08;10.55;;;6.50;99.90;;;;;;6242009;23;20020;-79
2022/11/28 02:48:06;;;;;;;15.32;8.68;;;6.50;99.90;;;;;;6213531;23;20023;-79
2022/11/28 02:51:08;;;;;;;14.30;8.55;;;6.50;99.90;;;;;;6214341;23;20016;-79
2022/11/28 02:53:36;;;;;;;14.05;8.90;;;6.50;99.90;;;;;;6214792;23;20020;-79
2022/11/28 02:56:02;;;;;;;15.20;9.05;;;6.40;99.90;;;;;;6241296;23;20012;-79
2022/11/28 02:58:28;;;;;;;14.05;8.65;;;6.50;99.90;;;;;;6214323;23;20024;-78
2022/11/28 03:00:53;;;;;;;14.50;8.23;;;6.50;99.90;;;;;;6241195;23;20062;-78
2022/11/28 03:03:51;;;;;;;17.15;9.07;;;6.50;99.90;;;;;;6189134;23;20020;-79
2022/11/28 03:06:30;;;;;;;13.75;8.40;;;6.50;99.90;;;;;;6241974;23;20019;-79
2022/11/28 03:09:05;;;;;;;20.15;9.43;;;6.50;99.90;;;;;;6214608;23;20020;-79
2022/11/28 03:12:18;;;;;;;14.82;8.98;;;6.50;99.90;;;;;;6214029;23;20678;-79
2022/11/28 03:14:46;;;;;;;15.43;9.27;;;6.50;99.90;;;;;;6069639;23;20014;-79
2022/11/28 03:17:36;;;;;;;14.38;9.48;;;6.50;99.90;;;;;;6117720;23;20457;-79
2022/11/28 03:20:14;;;;;;;14.32;9.18;;;6.50;99.90;;;;;;6118228;23;20014;-79
2022/11/28 03:23:18;;;;;;;16.30;9.60;;;6.50;99.90;;;;;;6094399;23;20076;-79
2022/11/28 03:26:06;;;;;;;16.45;10.27;;;6.50;99.90;;;;;;6093690;23;20025;-79
2022/11/28 03:28:51;;;;;;;17.08;10.45;;;6.50;99.90;;;;;;6092802;23;20013;-79
2022/11/28 03:31:51;;;;;;;17.92;10.82;;;6.50;99.90;;;;;;6117424;23;20141;-77
2022/11/28 03:34:21;;;;;;;19.85;11.48;;;6.50;99.90;;;;;;6116859;23;20018;-79
2022/11/28 03:36:56;;;;;;;17.30;11.13;;;6.50;99.90;;;;;;6093854;23;20010;-79
2022/11/28 03:39:23;;;;;;;;;;;6.50;99.90;;;;;;6118425;23;20331;-79
2022/11/28 03:42:04;;;;;;;16.25;10.93;;;6.80;99.90;;;;;;6117961;23;19925;-79
2022/11/28 03:44:43;;;;;;;18.05;11.05;;;6.50;99.90;;;;;;6116716;23;20128;-78
2022/11/28 03:47:09;;;;;;;17.33;11.50;;;6.50;99.90;;;;;;6118305;23;20439;-79
2022/11/28 03:49:40;;;;;;;20.40;11.85;;;6.50;99.90;;;;;;6117402;23;20022;-79
2022/11/28 03:52:13;;;;;;;24.23;12.80;;;6.50;99.90;;;;;;6240396;23;20062;-79
2022/11/28 03:55:02;;;;;;;25.35;12.70;;;6.50;99.90;;;;;;6240617;23;20012;-80
2022/11/28 03:57:39;;;;;;;20.25;12.23;;;6.60;99.90;;;;;;6240387;23;20031;-79
2022/11/28 04:00:11;;;;;;;20.58;12.48;;;6.60;99.90;;;;;;6239728;23;20043;-79
2022/11/28 04:03:02;;;;;;;17.23;12.40;;;6.60;99.90;;;;;;6240424;23;20091;-79
2022/11/28 04:05:53;;;;;;;23.38;12.57;;;6.60;99.90;;;;;;6240457;23;20103;-79
2022/11/28 04:08:30;;;;;;;20.55;12.82;;;6.60;99.90;;;;;;6213641;23;20090;-81
2022/11/28 04:11:17;;;;;;;22.05;13.05;;;6.60;99.90;;;;;;6240794;23;20012;-79
2022/11/28 04:14:01;;;;;;;22.17;14.05;;;6.70;99.90;;;;;;6213003;23;20075;-79
2022/11/28 04:16:52;;;;;;;22.88;13.75;;;6.60;99.90;;;;;;6213339;23;20341;-79
2022/11/28 04:19:26;;;;;;;20.73;13.93;;;6.70;99.90;;;;;;6241183;23;20009;-79
2022/11/28 04:22:26;;;;;;;21.70;14.75;;;6.70;99.90;;;;;;6188248;23;20023;-79
2022/11/28 04:24:56;;;;;;;19.75;14.00;;;6.70;99.90;;;;;;6240543;23;20019;-79
2022/11/28 04:27:27;;;;;;;22.92;15.02;;;6.70;99.90;;;;;;6240103;23;20016;-79
2022/11/28 04:29:57;;;;;;;23.35;15.50;;;6.70;99.90;;;;;;6213163;23;20031;-79
2022/11/28 04:32:25;;;;;;;25.08;15.38;;;6.80;99.90;;;;;;6240781;23;20012;-79
2022/11/28 04:35:00;;;;;;;23.40;15.57;;;6.80;99.90;;;;;;6240527;23;20019;-79
2022/11/28 04:37:26;;;;;;;;;;;6.80;99.90;;;;;;6213468;23;20019;-80
2022/11/28 04:39:54;;;;;;;25.65;16.50;;;6.80;99.90;;;;;;6239848;23;20240;-79
2022/11/28 04:42:25;;;;;;;26.90;16.90;;;6.80;99.90;;;;;;6240251;23;20016;-79
2022/11/28 04:45:07;;;;;;;28.45;16.90;;;6.80;99.90;;;;;;6239745;23;20441;-79
2022/11/28 04:47:33;;;;;;;31.95;19.15;;;6.90;99.90;;;;;;6213558;23;20069;-79
2022/11/28 04:49:59;;;;;;;27.60;19.33;;;6.90;99.90;;;;;;6213392;23;20027;-78
2022/11/28 04:52:38;;;;;;;29.55;19.35;;;6.90;99.90;;;;;;6240342;23;20070;-79
2022/11/28 04:55:15;;;;;;;28.38;20.42;;;7.00;99.90;;;;;;6213045;23;20054;-81
2022/11/28 04:58:18;;;;;;;28.20;18.08;;;7.00;99.90;;;;;;6213009;23;20066;-80
2022/11/28 05:00:47;;;;;;;27.65;19.45;;;7.00;99.90;;;;;;6204039;23;20016;-79
2022/11/28 05:03:12;;;;;;;28.50;19.38;;;7.10;99.90;;;;;;6242425;23;20004;-79
2022/11/28 05:05:56;;;;;;;25.60;17.77;;;7.10;99.90;;;;;;6215307;23;20091;-79
2022/11/28 05:08:22;;;;;;;29.52;19.70;;;7.10;99.90;;;;;;6215164;23;20058;-79
2022/11/28 05:10:47;;;;;;;27.63;19.67;;;7.10;99.90;;;;;;6242573;23;20020;-79
2022/11/28 05:13:13;;;;;;;28.95;20.42;;;7.10;99.90;;;;;;6242817;23;20016;-79
2022/11/28 05:15:39;;;;;;;28.42;20.33;;;7.10;99.90;;;;;;6242876;23;20023;-79
2022/11/28 05:18:05;;;;;;;32.25;20.30;;;7.20;99.90;;;;;;6242227;23;20456;-79
2022/11/28 05:20:31;;;;;;;29.88;21.15;;;7.20;99.90;;;;;;6215239;23;20020;-79
2022/11/28 05:22:56;;;;;;;30.75;20.27;;;7.20;99.90;;;;;;6242851;23;20531;-79
2022/11/28 05:25:22;;;;;;;26.83;20.15;;;7.20;99.90;;;;;;6189893;23;20019;-79
2022/11/28 05:27:48;;;;;;;30.05;20.42;;;7.20;99.90;;;;;;6241800;23;20016;-79
2022/11/28 05:30:14;;;;;;;30.02;20.00;;;7.20;99.90;;;;;;6242475;23;20143;-79
2022/11/28 05:32:40;;;;;;;31.88;21.75;;;7.20;99.90;;;;;;6215782;23;20031;-79
2022/11/28 05:35:06;;;;;;;30.83;21.58;;;7.20;99.90;;;;;;6214687;23;20008;-79
2022/11/28 05:37:32;;;;;;;29.02;21.73;;;7.20;99.90;;;;;;6214852;23;20016;-79
2022/11/28 05:39:57;;;;;;;28.60;20.20;;;7.30;99.90;;;;;;6214355;23;20019;-78
2022/11/28 05:42:24;;;;;;;30.08;21.48;;;7.30;99.90;;;;;;6214686;23;20045;-78
2022/11/28 05:44:50;;;;;;;32.92;21.85;;;7.30;99.90;;;;;;6241864;23;20432;-79
2022/11/28 05:47:16;;;;;;;29.05;21.02;;;7.30;99.90;;;;;;6214768;23;20004;-81
2022/11/28 05:49:42;;;;;;;29.83;20.63;;;7.30;99.90;;;;;;6241984;23;20012;-82
2022/11/28 05:52:08;;;;;;;29.08;19.75;;;7.30;99.90;;;;;;6212936;23;20095;-80
2022/11/28 05:54:33;;;;;;;31.00;20.00;;;7.30;99.90;;;;;;6241570;23;20020;-79
2022/11/28 05:56:59;;;;;;;28.60;20.33;;;7.30;99.90;;;;;;6213821;23;20028;-79
2022/11/28 05:59:25;;;;;;;28.98;18.48;;;7.30;99.90;;;;;;6241345;23;20048;-79
2022/11/28 06:01:51;;;;;;;26.92;19.58;;;7.40;99.90;;;;;;6189133;23;20023;-78
2022/11/28 06:04:16;;;;;;;28.23;18.90;;;7.40;99.90;;;;;;6215309;23;20355;-79
2022/11/28 06:06:42;;;;;;;24.98;18.17;;;7.40;99.90;;;;;;6241270;23;20494;-79
2022/11/28 06:09:08;;;;;;;28.05;19.27;;;7.60;99.90;;;;;;6214625;23;20047;-78
2022/11/28 06:11:34;;;;;;;26.20;18.38;;;7.40;99.90;;;;;;6242685;23;20012;-80
2022/11/28 06:14:01;;;;;;;25.30;18.67;;;7.40;99.90;;;;;;6242505;23;20441;-80
2022/11/28 06:16:29;;;;;;;26.35;18.15;;;7.40;99.90;;;;;;6216248;23;20008;-80
2022/11/28 06:18:56;;;;;;;25.58;17.90;;;7.40;99.90;;;;;;6215034;23;20022;-80
2022/11/28 06:21:23;;;;;;;27.95;17.50;;;7.40;99.90;;;;;;6215881;23;20070;-81
2022/11/28 06:23:48;;;;;;;26.15;18.80;;;7.40;99.90;;;;;;6214971;23;20066;-80
2022/11/28 06:26:16;;;;;;;26.70;19.00;;;7.40;99.90;;;;;;6215585;23;20020;-80
2022/11/28 06:28:42;;;;;;;27.65;19.00;;;7.40;99.90;;;;;;6242464;23;20011;-80
2022/11/28 06:31:13;;;;;;;28.88;19.27;;;7.50;99.90;;;;;;6242791;23;20016;-81
2022/11/28 06:33:39;;;;;;;29.27;20.10;;;7.50;99.90;;;;;;6215730;23;20032;-81
2022/11/28 06:36:06;;;;;;;26.92;19.35;;;7.50;99.90;;;;;;6215857;23;20039;-80
2022/11/28 06:38:32;;;;;;;27.67;20.08;;;7.50;99.90;;;;;;6214721;23;20059;-81
2022/11/28 06:41:00;;;;;;;27.30;19.38;;;7.50;99.90;;;;;;6241859;23;20026;-81
2022/11/28 06:43:26;;;;;;;28.58;19.42;;;7.50;99.90;;;;;;6215504;23;20020;-80
2022/11/28 06:45:52;;;;;;;29.05;20.23;;;7.50;99.90;;;;;;6215365;23;20020;-81
2022/11/28 06:48:18;;;;;;;26.65;17.83;;;7.50;99.90;;;;;;6214726;23;20016;-81
2022/11/28 06:50:44;;;;;;;28.02;18.77;;;7.50;99.90;;;;;;6214450;23;20020;-81
2022/11/28 06:53:10;;;;;;;25.88;18.42;;;7.50;99.90;;;;;;6241231;23;20142;-81
2022/11/28 06:55:36;;;;;;;25.23;17.98;;;7.50;99.90;;;;;;6242277;23;20008;-81
2022/11/28 06:58:01;;;;;;;28.52;19.35;;;7.50;99.90;;;;;;6214855;23;20070;-81
2022/11/28 07:00:27;;;;;;;29.50;19.80;;;7.50;99.90;;;;;;6213911;23;20503;-80
2022/11/28 07:02:52;;;;;;;28.05;19.67;;;7.50;99.90;;;;;;6214540;23;20027;-81
2022/11/28 07:05:20;;;;;;;31.60;20.60;;;7.50;99.90;;;;;;6215025;23;20460;-81
2022/11/28 07:07:46;;;;;;;29.27;19.55;;;7.50;99.90;;;;;;6213758;23;20079;-82
2022/11/28 07:10:11;;;;;;;27.92;18.80;;;7.50;99.90;;;;;;6213639;23;20051;-82
2022/11/28 07:12:37;;;;;;;30.35;21.05;;;7.50;99.90;;;;;;6215031;23;20890;-82
2022/11/28 07:15:06;;;;;;;27.15;18.80;;;7.50;99.90;;;;;;6213494;23;20109;-81
2022/11/28 07:17:32;;;;;;;26.73;18.27;;;7.50;99.90;;;;;;6214803;23;20012;-81
2022/11/28 07:19:58;;;;;;;28.83;20.77;;;7.50;99.90;;;;;;6241330;23;20022;-81
2022/11/28 07:22:23;;;;;;;26.85;19.75;;;7.50;99.90;;;;;;6213204;23;20396;-81
2022/11/28 07:24:49;;;;;;;30.10;21.15;;;7.50;99.90;;;;;;6240299;23;20012;-82
2022/11/28 07:27:15;;;;;;;29.00;18.52;;;7.50;99.90;;;;;;6239968;23;20074;-83
2022/11/28 07:29:40;;;;;;;30.40;20.88;;;7.50;99.90;;;;;;6241536;23;20012;-81
2022/11/28 07:32:06;;;;;;;30.77;20.27;;;7.50;99.90;;;;;;6213513;23;20016;-82
2022/11/28 07:34:33;;;;;;;28.80;18.73;;;7.50;99.90;;;;;;6214111;23;20015;-81
2022/11/28 07:36:58;;;;;;;32.55;19.83;;;7.50;99.90;;;;;;6239446;23;20019;-80
2022/11/28 07:39:24;;;;;;;29.77;20.50;;;7.50;99.90;;;;;;6211972;23;20384;-79
2022/11/28 07:41:50;;;;;;;27.20;18.77;;;7.50;99.90;;;;;;6212890;23;20417;-80
2022/11/28 07:44:18;;;;;;;29.90;19.38;;;7.50;99.90;;;;;;6214581;23;20016;-80
2022/11/28 07:46:45;;;;;;;29.27;19.35;;;7.50;99.90;;;;;;6241563;23;20011;-80
2022/11/28 07:49:12;;;;;;;28.20;18.25;;;7.50;99.90;;;;;;6213289;23;20013;-80
2022/11/28 07:51:37;;;;;;;29.00;19.80;;;7.60;99.90;;;;;;6238821;23;20023;-80
2022/11/28 07:54:04;;;;;;;30.45;19.70;;;7.50;99.90;;;;;;6214060;23;20016;-80
2022/11/28 07:56:32;;;;;;;34.00;21.17;;;7.60;99.90;;;;;;6213540;23;20101;-80
2022/11/28 07:58:59;;;;;;;29.95;19.38;;;7.50;99.90;;;;;;6241392;23;20023;-80
2022/11/28 08:01:27;;;;;;;23.80;17.77;;;7.60;99.90;;;;;;6240822;23;20325;-80
2022/11/28 08:03:54;;;;;;;25.42;16.95;;;7.60;99.90;;;;;;6213226;23;20499;-80
2022/11/28 08:06:22;;;;;;;26.98;17.13;;;7.60;99.90;;;;;;6188542;23;20417;-80
2022/11/28 08:08:48;;;;;;;23.85;16.77;;;7.60;99.90;;;;;;6213547;23;20051;-80
2022/11/28 08:11:15;;;;;;;25.92;15.85;;;7.60;99.90;;;;;;6241150;23;20061;-81
2022/11/28 08:13:41;;;;;;;27.08;15.95;;;7.60;99.90;;;;;;6214197;23;20020;-81
2022/11/28 08:16:11;;;;;;;22.90;15.68;;;7.60;99.90;;;;;;6213881;23;20023;-81
2022/11/28 08:18:36;;;;;;;22.75;15.63;;;7.60;99.90;;;;;;6214077;23;20008;-81
2022/11/28 08:21:11;;;;;;;25.15;14.93;;;7.60;99.90;;;;;;6212710;23;20047;-81
2022/11/28 08:23:38;;;;;;;26.05;15.02;;;7.60;99.90;;;;;;6213775;23;20012;-81
2022/11/28 08:26:06;;;;;;;21.98;13.50;;;7.60;99.90;;;;;;6238128;23;20433;-83
2022/11/28 08:28:32;;;;;;;22.23;14.55;;;7.60;99.90;;;;;;6212168;23;20023;-82
2022/11/28 08:31:00;;;;;;;23.27;14.80;;;7.60;99.90;;;;;;6239195;23;20509;-82
2022/11/28 08:33:26;;;;;;;18.73;13.23;;;7.60;99.90;;;;;;6212255;23;20024;-82
2022/11/28 08:35:52;;;;;;;20.17;13.73;;;7.70;99.90;;;;;;6214205;23;20071;-82
2022/11/28 08:38:18;;;;;;;19.40;13.48;;;7.60;99.90;;;;;;6241146;23;20066;-81
2022/11/28 08:40:44;;;;;;;21.98;13.43;;;7.60;99.90;;;;;;6214532;23;20091;-82
2022/11/28 08:43:09;;;;;;;20.63;12.57;;;7.70;99.90;;;;;;6214772;23;20369;-82
2022/11/28 08:45:38;;;;;;;17.42;12.20;;;7.60;99.90;;;;;;6241516;23;20008;-82
2022/11/28 08:48:04;;;;;;;18.08;12.85;;;7.70;99.90;;;;;;6214642;23;20066;-82
2022/11/28 08:50:30;;;;;;;18.05;11.32;;;7.70;99.90;;;;;;6213845;23;20027;-82
2022/11/28 08:52:55;;;;;;;15.68;11.45;;;7.70;99.90;;;;;;6214538;23;20019;-83
2022/11/28 08:55:21;;;;;;;15.77;10.98;;;7.70;99.90;;;;;;6214499;23;20016;-82
2022/11/28 08:57:47;;;;;;;15.88;11.15;;;7.70;99.90;;;;;;6214490;23;20023;-82
2022/11/28 09:00:13;;;;;;;15.02;9.93;;;7.70;99.90;;;;;;6214274;23;20024;-82
2022/11/28 09:02:38;;;;;;;14.48;10.38;;;7.70;99.90;;;;;;6214459;23;20062;-82
2022/11/28 09:05:04;;;;;;;14.45;9.70;;;7.80;99.90;;;;;;6214216;23;20012;-83
2022/11/28 09:07:30;;;;;;;12.80;9.40;;;7.80;99.90;;;;;;6241616;23;20095;-83
2022/11/28 09:09:55;;;;;;;13.52;10.30;;;7.70;99.90;;;;;;6214456;23;20030;-82
2022/11/28 09:12:21;;;;;;;16.25;10.93;;;7.70;99.90;;;;;;6214620;23;20317;-82
2022/11/28 09:14:47;;;;;;;14.57;10.20;;;7.70;99.90;;;;;;6214441;23;20437;-81
2022/11/28 09:17:14;;;;;;;14.25;10.07;;;7.80;99.90;;;;;;6214688;23;20087;-82
2022/11/28 09:19:40;;;;;;;13.10;9.43;;;7.80;99.90;;;;;;6214177;23;20088;-82
2022/11/28 09:22:06;;;;;;;14.57;9.55;;;7.80;99.90;;;;;;6214323;23;20047;-82
2022/11/28 09:24:31;;;;;;;15.18;9.43;;;7.80;99.90;;;;;;6214453;23;20024;-81
2022/11/28 09:26:57;;;;;;;13.07;8.88;;;7.80;99.90;;;;;;6214268;23;20628;-81
2022/11/28 09:29:23;;;;;;;11.35;8.07;;;7.80;99.90;;;;;;6189360;23;20055;-81
2022/11/28 09:31:48;;;;;;;11.38;8.13;;;7.80;99.90;;;;;;6214378;23;20087;-82
2022/11/28 09:34:14;;;;;;;12.32;8.43;;;7.80;99.90;;;;;;6240580;23;20008;-81
2022/11/28 09:36:40;;;;;;;11.13;7.45;;;7.90;99.90;;;;;;6214629;23;20020;-81
2022/11/28 09:39:06;;;;;;;12.60;8.32;;;7.90;99.90;;;;;;6241680;23;20234;-81
2022/11/28 09:41:44;;;;;;;13.35;8.60;;;7.90;99.90;;;;;;6214254;23;20070;-81
2022/11/28 09:44:21;;;;;;;13.90;7.88;;;7.90;99.90;;;;;;6241426;23;20337;-82
2022/11/28 09:46:50;;;;;;;11.30;7.28;;;7.90;99.90;;;;;;6213908;23;20087;-81
2022/11/28 09:49:31;;;;;;;10.75;7.53;;;7.90;99.90;;;;;;6215069;23;20051;-81
2022/11/28 09:52:00;;;;;;;10.55;6.18;;;7.90;99.90;;;;;;6244187;23;20373;-82
2022/11/28 09:54:51;;;;;;;9.57;6.30;;;7.90;99.90;;;;;;6243355;23;20012;-81
2022/11/28 09:57:33;;;;;;;9.65;6.38;;;8.00;99.90;;;;;;6242670;23;20008;-81
2022/11/28 09:59:58;;;;;;;9.25;6.43;;;8.00;99.90;;;;;;6243185;23;20016;-81
2022/11/28 10:02:51;;;;;;;10.88;6.43;;;8.00;99.90;;;;;;6242352;23;20043;-81
2022/11/28 10:06:00;;;;;;;10.70;6.25;;;7.90;99.90;;;;;;6216515;23;20020;-81
2022/11/28 10:08:50;;;;;;;9.30;6.43;;;8.00;99.90;;;;;;6095472;23;20014;-81
2022/11/28 10:11:31;;;;;;;11.40;6.32;;;8.00;99.90;;;;;;6120336;23;20014;-81
2022/11/28 10:14:14;;;;;;;8.68;5.95;;;8.00;99.90;;;;;;6095751;23;20018;-81
2022/11/28 10:17:03;;;;;;;11.13;6.47;;;8.00;99.90;;;;;;6095735;23;20028;-81
2022/11/28 10:19:40;;;;;;;9.70;6.70;;;8.00;99.90;;;;;;6120028;23;20021;-81
2022/11/28 10:22:14;;;;;;;8.98;6.13;;;8.00;99.90;;;;;;6095732;23;20077;-81
2022/11/28 10:24:52;;;;;;;10.23;6.63;;;8.00;99.90;;;;;;6095314;23;20036;-81
2022/11/28 10:27:19;;;;;;;11.10;6.40;;;8.00;99.90;;;;;;6095604;23;20089;-81
2022/11/28 10:29:51;;;;;;;10.38;7.25;;;8.00;99.90;;;;;;6120101;23;20081;-81
2022/11/28 10:32:19;;;;;;;9.63;6.93;;;8.10;99.90;;;;;;6071370;23;20022;-82
2022/11/28 10:35:00;;;;;;;11.30;6.93;;;8.10;99.90;;;;;;6095673;23;20021;-81
2022/11/28 10:37:29;;;;;;;10.30;7.05;;;8.10;99.90;;;;;;6119890;23;20182;-81
2022/11/28 10:40:14;;;;;;;8.63;6.43;;;8.10;99.90;;;;;;6119924;23;20355;-81
2022/11/28 10:43:11;;;;;;;9.23;6.22;;;8.10;99.90;;;;;;6095332;23;20241;-81
2022/11/28 10:46:02;;;;;;;13.18;6.97;;;8.10;99.90;;;;;;6181824;23;20020;-81
2022/11/28 10:48:39;;;;;;;9.90;6.80;;;8.10;99.90;;;;;;6243067;23;20128;-80
2022/11/28 10:51:25;;;;;;;9.95;6.95;;;8.10;99.90;;;;;;6242382;23;20444;-81
2022/11/28 10:54:15;;;;;;;11.55;7.50;;;8.20;99.90;;;;;;6242546;23;20027;-81
2022/11/28 10:57:22;;;;;;;9.55;6.22;;;8.20;99.90;;;;;;6242420;23;20016;-81
2022/11/28 10:59:57;;;;;;;10.63;7.57;;;8.20;99.90;;;;;;6174425;23;20016;-81
2022/11/28 11:02:36;;;;;;;9.65;6.35;;;8.20;99.90;;;;;;6242292;23;20068;-81
2022/11/28 11:05:05;;;;;;;9.93;7.25;;;8.20;99.90;;;;;;6241865;23;20024;-81
2022/11/28 11:07:32;;;;;;;10.73;7.03;;;8.20;99.90;;;;;;6242719;23;20008;-81
2022/11/28 11:10:12;;;;;;;9.20;6.35;;;8.30;99.90;;;;;;6215434;23;20016;-82
2022/11/28 11:12:38;;;;;;;9.95;7.72;;;8.30;99.90;;;;;;6242889;23;20044;-81
2022/11/28 11:15:23;;;;;;;9.05;6.60;;;8.20;99.90;;;;;;6242235;23;20008;-81
2022/11/28 11:17:49;;;;;;;8.60;6.20;;;8.30;99.90;;;;;;6242567;23;20008;-81
2022/11/28 11:20:34;;;;;;;11.20;6.70;;;8.20;99.90;;;;;;6215185;23;20047;-83
2022/11/28 11:23:11;;;;;;;9.80;6.82;;;8.30;99.90;;;;;;6215452;23;20020;-80
2022/11/28 11:25:46;;;;;;;9.70;6.85;;;8.30;99.90;;;;;;6215237;23;20701;-79
2022/11/28 11:28:24;;;;;;;;;;;8.30;99.90;;;;;;6215273;23;20012;-80
2022/11/28 11:30:58;;;;;;;11.75;6.47;;;8.30;99.90;;;;;;6215290;23;19920;-79
2022/11/28 11:33:33;;;;;;;10.50;6.50;;;8.40;99.90;;;;;;6214736;23;20487;-79
2022/11/28 11:36:01;;;;;;;10.80;7.32;;;8.40;99.90;;;;;;6214880;23;20012;-80
2022/11/28 11:38:29;;;;;;;9.25;6.75;;;8.40;99.90;;;;;;6215287;23;20008;-79
2022/11/28 11:40:54;;;;;;;10.80;6.97;;;8.40;99.90;;;;;;6215116;23;20086;-79
2022/11/28 11:43:28;;;;;;;10.35;6.97;;;8.40;99.90;;;;;;6215016;23;20024;-80
2022/11/28 11:46:14;;;;;;;10.10;6.97;;;8.50;99.90;;;;;;6242200;23;20054;-80
2022/11/28 11:48:40;;;;;;;9.27;6.45;;;8.50;99.90;;;;;;6214706;23;20016;-80
2022/11/28 11:51:27;;;;;;;9.40;6.82;;;8.50;99.90;;;;;;6190365;23;20023;-80
2022/11/28 11:54:04;;;;;;;10.43;7.03;;;8.50;99.90;;;;;;6215347;23;20016;-79
2022/11/28 11:56:35;;;;;;;10.07;6.90;;;8.50;99.90;;;;;;6212759;23;20091;-80
2022/11/28 11:59:06;;;;;;;10.13;6.93;;;8.50;99.90;;;;;;6213102;23;20016;-80
2022/11/28 12:01:33;;;;;;;13.50;7.43;;;8.50;99.90;;;;;;6214555;23;20020;-79
2022/11/28 12:04:05;;;;;;;12.10;7.65;;;8.50;99.90;;;;;;6241054;23;20042;-80
2022/11/28 12:06:41;;;;;;;12.60;8.38;;;8.50;99.90;;;;;;6241324;23;20008;-80
2022/11/28 12:09:45;;;;;;;10.45;7.40;;;8.50;99.90;;;;;;6214089;23;20024;-80
2022/11/28 12:12:26;;;;;;;14.00;7.60;;;8.60;99.90;;;;;;6240391;23;20392;-80
2022/11/28 12:14:52;;;;;;;11.63;7.68;;;8.50;99.90;;;;;;6213179;23;20013;-80
2022/11/28 12:17:40;;;;;;;10.57;7.65;;;8.60;99.90;;;;;;6214372;23;20065;-80
2022/11/28 12:20:30;;;;;;;11.38;7.45;;;8.60;99.90;;;;;;6241462;23;20474;-80
2022/11/28 12:23:33;;;;;;;12.23;8.70;;;8.60;99.90;;;;;;6239553;23;20399;-80
2022/11/28 12:26:37;;;;;;;11.23;7.90;;;8.60;99.90;;;;;;6241394;23;20016;-80
2022/11/28 12:29:11;;;;;;;12.35;7.95;;;8.60;99.90;;;;;;6117808;23;20487;-80
2022/11/28 12:32:03;;;;;;;11.57;8.27;;;8.60;99.90;;;;;;6118798;23;20017;-80
2022/11/28 12:35:01;;;;;;;12.32;8.38;;;8.60;99.90;;;;;;6119147;23;20018;-80
2022/11/28 12:38:03;;;;;;;12.38;7.72;;;8.60;99.90;;;;;;6093145;23;20129;-80
2022/11/28 12:40:49;;;;;;;11.07;7.57;;;8.60;99.90;;;;;;6119091;23;20024;-80
2022/11/28 12:43:31;;;;;;;11.63;8.15;;;8.70;99.90;;;;;;6094758;23;20018;-79
2022/11/28 12:46:15;;;;;;;11.68;8.38;;;8.70;99.90;;;;;;6119208;23;20029;-80
2022/11/28 12:49:08;;;;;;;12.63;8.02;;;8.70;99.90;;;;;;6119098;23;20014;-79
2022/11/28 12:52:01;;;;;;;12.73;9.18;;;8.70;99.90;;;;;;6118427;23;20037;-80
2022/11/28 12:54:48;;;;;;;11.45;7.63;;;8.70;99.90;;;;;;6094124;23;20025;-80
2022/11/28 12:57:22;;;;;;;11.18;7.63;;;8.70;99.90;;;;;;6091089;23;20053;-81
2022/11/28 13:00:03;;;;;;;11.77;7.68;;;8.70;99.90;;;;;;6115913;23;20057;-81
2022/11/28 13:03:03;;;;;;;11.82;8.10;;;8.70;99.90;;;;;;6067070;23;20021;-82
2022/11/28 13:05:56;;;;;;;10.85;7.15;;;8.70;99.90;;;;;;6189155;23;20358;-81
2022/11/28 13:08:41;;;;;;;11.10;8.05;;;8.70;99.90;;;;;;6213244;23;20065;-82
2022/11/28 13:11:27;;;;;;;13.75;7.72;;;8.70;99.90;;;;;;6240929;23;20012;-81
2022/11/28 13:14:04;;;;;;;12.98;7.68;;;8.70;99.90;;;;;;6241358;23;20016;-81